Miami, FL

8:33 PM EDT on August 28, 2015 (GMT -0400)
U of Miami Health System WeatherSTEM | | Change Station
CLOSE
Current Station
Personal Weather Station
Location: Miami, FL
Elevation: 68 ft
Nearby Weather Stations

Elev 68 ft 25.79 °N, 80.22 °W | Updated 4 minutes ago

Partly Cloudy
Partly Cloudy
82.2 °F
Feels Like 90 °F
N
11.0
Wind Variable Wind from East
Gusts 17.0 mph

Today
High -- | Low -- °F
--% Chance of Precip.
Yesterday
High -- | Low -- °F
Precip. -- in
6:59 AM 7:44 PM
Waxing Gibbous, 99% visible
Pressure 30.01 in
Visibility 10.0 miles
Clouds Scattered Clouds 2500 ft
Scattered Clouds 12000 ft
Mostly Cloudy 30000 ft
Heat Index 90 °F
Dew Point 76 °F
Humidity 81%
Rainfall 0.00 in
Snow Depth Not available.
UV 0.0 out of 12
Pollen 2.70 out of 12
Air Quality Not available.
Flu Activity Not available.
METAR KMIA 282353Z 09011KT 10SM SCT025 SCT120 BKN300 29/23 A3001 RMK AO2 SLP161 CB DSNT N AND SE AND SW-NW T02940233 10328 20294 51013
Pressure 30.01 in
Visibility 10.0 miles
Clouds Scattered Clouds 2500 ft
Scattered Clouds 12000 ft
Mostly Cloudy 30000 ft
Heat Index 90 °F
Dew Point 76 °F
Humidity 81%
Rainfall 0.00 in
Snow Depth Not available.
UV 0.0 out of 12
Pollen 2.70 out of 12
Air Quality Not available.
Flu Activity Not available.
METAR KMIA 282353Z 09011KT 10SM SCT025 SCT120 BKN300 29/23 A3001 RMK AO2 SLP161 CB DSNT N AND SE AND SW-NW T02940233 10328 20294 51013
Erika has become very unorganized in the face of strong wind shear in the eastern Caribbean Sea. The storm will pass directly over mountainous Hispaniola today, likely weakening it further. If the storm remains intact, it could reach an area favorable for strengthening before moving onto Florida by early next week. Follow the live blog

10-Day Weather Forecast

×

Almanac

Astronomy

Aug. 28, 2015 Rise Set
Actual Time
Civil Twilight
Nautical Twilight
Astronomical Twilight
Moon
Length of Visible Light
Length of Day
Tomorrow will be .
, % of the Moon is Illuminated

Today's Extremes

State Highs State Lows

Community

WunderPhotos

Upload Photos

1,850,548 photos uploaded!

WunderBlogs® & News

Nearby

Air Quality

  Air Quality AQ Index Pollutant
Not available.

Snow Depth

Station Depth Elevation

Earthquake Activity

City Distance Mag. Time & Date
Minimum magnitude displayed is 2.5.

Coastal Water Temperatures

Place Temperature

Stations

Nearby Weather Stations

Station Location Temp. Windchill Dew Point Humidity Wind Precip. Elev Updated Type